createdAt,value
2017-09-17T00:01:15.497Z,10.00
2017-09-17T00:03:43.979Z,7.65
2017-09-17T00:06:12.462Z,9.95
2017-09-17T00:08:40.943Z,7.47
2017-09-17T00:11:09.436Z,5.32
2017-09-17T00:13:37.166Z,5.78
2017-09-17T00:16:04.883Z,9.25
2017-09-17T00:18:32.598Z,5.80
2017-09-17T00:21:00.307Z,8.85
2017-09-17T00:23:28.098Z,6.43
2017-09-17T00:25:55.823Z,6.07
2017-09-17T00:28:23.543Z,5.18
2017-09-17T00:30:51.272Z,6.22
2017-09-17T00:33:18.981Z,7.57
2017-09-17T00:35:46.707Z,8.65
2017-09-17T00:38:14.443Z,11.40
2017-09-17T00:40:42.160Z,5.03
2017-09-17T00:43:09.886Z,5.93
2017-09-17T00:45:37.631Z,10.65
2017-09-17T00:48:05.411Z,10.38
2017-09-17T00:50:33.190Z,6.57
2017-09-17T00:53:01.004Z,6.53
2017-09-17T00:55:28.823Z,6.05
2017-09-17T00:57:56.587Z,10.38
2017-09-17T01:00:24.310Z,5.90
2017-09-17T01:02:52.799Z,8.20
2017-09-17T01:05:21.299Z,6.50
2017-09-17T01:07:49.102Z,5.07
2017-09-17T01:10:16.852Z,7.87
2017-09-17T01:12:44.603Z,9.98
2017-09-17T01:15:12.332Z,5.68
2017-09-17T01:17:40.850Z,5.28
2017-09-17T01:20:08.607Z,7.70
2017-09-17T01:22:36.321Z,6.93
2017-09-17T01:25:04.104Z,7.28
2017-09-17T01:27:32.639Z,5.40
2017-09-17T01:30:00.339Z,6.70
2017-09-17T01:32:28.055Z,5.97
2017-09-17T01:34:55.771Z,7.53
2017-09-17T01:37:23.487Z,7.87
2017-09-17T01:39:51.195Z,4.70
2017-09-17T01:42:18.907Z,7.57
2017-09-17T01:44:46.605Z,5.72
2017-09-17T01:47:14.319Z,14.80
2017-09-17T01:49:42.099Z,5.43
2017-09-17T01:52:09.802Z,6.60
2017-09-17T01:54:37.523Z,6.80
2017-09-17T01:57:05.227Z,7.20
2017-09-17T01:59:32.941Z,5.35
2017-09-17T02:02:00.647Z,8.27
2017-09-17T02:04:28.375Z,5.65
2017-09-17T02:06:56.082Z,8.30
2017-09-17T02:09:23.847Z,8.68
2017-09-17T02:11:51.558Z,9.05
2017-09-17T02:14:19.282Z,13.70
2017-09-17T02:16:46.990Z,16.12
2017-09-17T02:19:14.699Z,10.75
2017-09-17T02:21:42.422Z,9.77
2017-09-17T02:24:10.134Z,9.82
2017-09-17T02:26:37.846Z,10.43
2017-09-17T02:29:05.555Z,7.30
2017-09-17T02:31:33.272Z,10.73
2017-09-17T02:34:00.986Z,11.12
2017-09-17T02:36:28.686Z,7.25
2017-09-17T02:38:57.182Z,8.30
2017-09-17T02:41:24.912Z,8.63
2017-09-17T02:43:52.638Z,8.07
2017-09-17T02:46:20.398Z,7.68
2017-09-17T02:48:48.114Z,8.25
2017-09-17T02:51:16.591Z,7.75
2017-09-17T02:53:45.072Z,6.05
2017-09-17T02:56:13.550Z,6.57
2017-09-17T02:58:41.258Z,9.90
2017-09-17T03:01:08.971Z,5.68
2017-09-17T03:03:36.684Z,8.88
2017-09-17T03:06:04.398Z,6.68
2017-09-17T03:08:32.879Z,6.62
2017-09-17T03:11:00.587Z,6.68
2017-09-17T03:13:28.309Z,8.00
2017-09-17T03:15:56.029Z,7.28
2017-09-17T03:18:23.738Z,7.32
2017-09-17T03:20:51.446Z,8.27
2017-09-17T03:23:19.159Z,10.02
2017-09-17T03:25:46.871Z,7.40
2017-09-17T03:28:14.579Z,6.55
2017-09-17T03:30:42.287Z,6.97
2017-09-17T03:33:10.002Z,7.50
2017-09-17T03:35:37.711Z,8.68
2017-09-17T03:38:05.430Z,6.72
2017-09-17T03:40:33.159Z,7.57
2017-09-17T03:43:00.884Z,9.93
2017-09-17T03:45:29.399Z,7.40
2017-09-17T03:47:57.110Z,11.98
2017-09-17T03:50:24.810Z,7.20
2017-09-17T03:52:53.294Z,9.70
2017-09-17T03:55:20.999Z,9.73
2017-09-17T03:57:48.717Z,5.53
2017-09-17T04:00:17.195Z,8.43
2017-09-17T04:02:45.715Z,5.65
2017-09-17T04:05:13.414Z,7.07
2017-09-17T04:07:41.258Z,5.82
2017-09-17T04:10:08.966Z,18.80
2017-09-17T04:12:37.446Z,8.25
2017-09-17T04:15:05.932Z,7.70
2017-09-17T04:17:34.407Z,6.85
2017-09-17T04:20:02.887Z,7.00
2017-09-17T04:22:31.371Z,6.15
2017-09-17T04:24:59.862Z,6.40
2017-09-17T04:27:28.346Z,6.75
2017-09-17T04:29:56.831Z,6.30
2017-09-17T04:32:24.547Z,6.65
2017-09-17T04:34:52.287Z,5.90
2017-09-17T04:37:20.009Z,6.45
2017-09-17T04:39:48.510Z,7.60
2017-09-17T04:42:16.229Z,8.10
2017-09-17T04:44:43.949Z,9.85
2017-09-17T04:47:11.666Z,6.95
2017-09-17T04:49:39.373Z,6.22
2017-09-17T04:52:07.094Z,6.30
2017-09-17T04:54:34.806Z,7.18
2017-09-17T04:57:02.517Z,6.35
2017-09-17T04:59:30.353Z,6.22
2017-09-17T05:01:58.074Z,7.43
2017-09-17T05:04:26.553Z,6.07
2017-09-17T05:06:55.039Z,7.55
2017-09-17T05:09:23.518Z,7.85
2017-09-17T05:11:52.005Z,7.25
2017-09-17T05:14:20.498Z,8.07
2017-09-17T05:16:48.210Z,6.28
2017-09-17T05:19:16.690Z,9.30
2017-09-17T05:21:44.410Z,10.88
2017-09-17T05:24:12.147Z,8.65
2017-09-17T05:26:40.654Z,10.60
2017-09-17T05:29:08.370Z,13.07
2017-09-17T05:31:36.095Z,8.98
2017-09-17T05:34:03.851Z,8.05
2017-09-17T05:36:31.578Z,13.75
2017-09-17T05:38:59.310Z,12.10
2017-09-17T05:41:27.034Z,8.27
2017-09-17T05:43:55.511Z,10.98
2017-09-17T05:46:25.594Z,7.25
2017-09-17T05:48:54.723Z,6.15
2017-09-17T05:51:24.778Z,8.68
2017-09-17T05:53:54.296Z,10.38
2017-09-17T05:56:23.604Z,14.38
2017-09-17T05:58:53.918Z,8.93
2017-09-17T06:01:23.792Z,7.10
2017-09-17T06:03:55.098Z,11.07
2017-09-17T06:06:25.533Z,12.00
2017-09-17T06:08:56.134Z,16.90
2017-09-17T06:11:26.326Z,9.60
2017-09-17T06:13:56.276Z,11.55
2017-09-17T06:16:27.840Z,9.57
2017-09-17T06:18:58.897Z,9.98
2017-09-17T06:21:29.318Z,9.00
2017-09-17T06:23:59.774Z,12.23
2017-09-17T06:26:31.349Z,10.63
2017-09-17T06:29:00.213Z,12.45
2017-09-17T06:31:30.192Z,13.00
2017-09-17T06:33:59.892Z,14.43
2017-09-17T06:36:29.716Z,14.50
2017-09-17T06:38:59.294Z,19.95
2017-09-17T06:41:28.382Z,17.70
2017-09-17T06:43:57.587Z,14.82
2017-09-17T06:46:28.692Z,17.85
2017-09-17T06:48:59.032Z,17.67
2017-09-17T06:51:29.953Z,15.23
2017-09-17T06:54:00.226Z,16.00
2017-09-17T06:56:33.059Z,14.55
2017-09-17T06:59:06.133Z,13.27
2017-09-17T07:01:41.535Z,13.32
2017-09-17T07:04:14.427Z,13.10
2017-09-17T07:06:45.702Z,14.60
2017-09-17T07:09:17.019Z,18.08
2017-09-17T07:11:47.629Z,13.80
2017-09-17T07:14:19.148Z,16.62
2017-09-17T07:16:50.613Z,16.37
2017-09-17T07:19:20.450Z,14.13
2017-09-17T07:21:51.685Z,16.50
2017-09-17T07:24:23.387Z,15.43
2017-09-17T07:26:53.655Z,19.23
2017-09-17T07:29:24.292Z,20.73
2017-09-17T07:31:52.786Z,25.25
2017-09-17T07:34:21.275Z,21.50
2017-09-17T07:36:49.773Z,21.65
2017-09-17T07:39:17.515Z,24.45
2017-09-17T07:41:52.450Z,26.80
2017-09-17T07:44:26.294Z,26.15
2017-09-17T07:46:54.282Z,26.08
2017-09-17T07:49:22.005Z,26.00
2017-09-17T07:51:49.733Z,28.08
2017-09-17T07:54:17.491Z,28.55
2017-09-17T07:56:45.390Z,29.48
2017-09-17T07:59:14.141Z,30.92
2017-09-17T08:01:41.858Z,35.78
2017-09-17T08:04:09.581Z,34.00
2017-09-17T08:06:37.318Z,31.25
2017-09-17T08:09:05.076Z,27.15
2017-09-17T08:11:32.810Z,33.05
2017-09-17T08:14:00.554Z,24.27
2017-09-17T08:16:29.057Z,22.17
2017-09-17T08:18:56.782Z,21.55
2017-09-17T08:21:24.518Z,25.42
2017-09-17T08:23:52.240Z,25.58
2017-09-17T08:26:20.798Z,22.23
2017-09-17T08:28:48.506Z,23.65
2017-09-17T08:31:16.234Z,22.48
2017-09-17T08:33:43.997Z,24.70
2017-09-17T08:36:11.726Z,20.40
2017-09-17T08:38:40.218Z,19.20
2017-09-17T08:41:07.937Z,21.33
2017-09-17T08:43:35.697Z,21.23
2017-09-17T08:46:04.332Z,21.65
2017-09-17T08:48:32.058Z,22.77
2017-09-17T08:50:59.828Z,21.73
2017-09-17T08:53:27.577Z,17.75
2017-09-17T08:55:55.311Z,19.33
2017-09-17T08:58:23.045Z,17.75
2017-09-17T09:00:50.829Z,19.25
2017-09-17T09:03:18.563Z,13.88
2017-09-17T09:05:46.281Z,15.32
2017-09-17T09:08:14.765Z,18.83
2017-09-17T09:10:43.369Z,16.42
2017-09-17T09:13:11.138Z,14.00
2017-09-17T09:15:38.894Z,15.73
2017-09-17T09:18:06.710Z,16.23
2017-09-17T09:20:34.678Z,18.20
2017-09-17T09:23:02.546Z,14.57
2017-09-17T09:25:30.413Z,20.50
2017-09-17T09:27:59.817Z,19.45
2017-09-17T09:30:27.684Z,15.65
2017-09-17T09:32:55.465Z,16.48
2017-09-17T09:35:23.316Z,15.50
2017-09-17T09:37:51.183Z,15.57
2017-09-17T09:40:19.051Z,18.98
2017-09-17T09:42:46.919Z,13.75
2017-09-17T09:45:14.789Z,14.90
2017-09-17T09:47:42.659Z,16.67
2017-09-17T09:50:10.520Z,15.52
2017-09-17T09:52:38.388Z,17.17
2017-09-17T09:55:06.254Z,18.77
2017-09-17T09:57:34.122Z,18.00
2017-09-17T10:00:01.989Z,18.30
2017-09-17T10:02:29.857Z,15.52
2017-09-17T10:04:57.724Z,18.50
2017-09-17T10:07:25.591Z,15.75
2017-09-17T10:09:53.459Z,16.35
2017-09-17T10:12:21.326Z,18.23
2017-09-17T10:14:49.193Z,18.30
2017-09-17T10:17:17.061Z,15.63
2017-09-17T10:19:44.929Z,20.45
2017-09-17T10:22:12.795Z,12.95
2017-09-17T10:24:40.661Z,13.90
2017-09-17T10:27:08.530Z,13.52
2017-09-17T10:29:36.397Z,12.57
2017-09-17T10:32:04.264Z,14.23
2017-09-17T10:34:32.135Z,13.95
2017-09-17T10:36:59.999Z,13.45
2017-09-17T10:39:27.867Z,15.35
2017-09-17T10:41:55.733Z,15.60
2017-09-17T10:44:23.600Z,15.07
2017-09-17T10:46:51.468Z,15.82
2017-09-17T10:49:19.335Z,20.52
2017-09-17T10:51:47.203Z,12.32
2017-09-17T10:54:15.070Z,12.65
2017-09-17T10:56:42.938Z,13.15
2017-09-17T10:59:10.805Z,14.90
2017-09-17T11:01:38.672Z,12.88
2017-09-17T11:04:06.540Z,13.10
2017-09-17T11:06:34.409Z,10.50
2017-09-17T11:09:02.279Z,10.50
2017-09-17T11:11:30.140Z,11.93
2017-09-17T11:13:58.008Z,13.40
2017-09-17T11:16:25.876Z,8.90
2017-09-17T11:18:53.743Z,10.93
2017-09-17T11:21:21.610Z,9.38
2017-09-17T11:23:49.481Z,8.50
2017-09-17T11:26:17.347Z,17.52
2017-09-17T11:28:45.213Z,11.68
2017-09-17T11:31:13.081Z,13.32
2017-09-17T11:33:40.951Z,9.38
2017-09-17T11:36:08.818Z,9.20
2017-09-17T11:38:36.682Z,6.70
2017-09-17T11:41:04.422Z,17.80
2017-09-17T11:43:32.186Z,13.65
2017-09-17T11:45:59.906Z,8.18
2017-09-17T11:48:28.398Z,6.30
2017-09-17T11:50:56.939Z,5.05
2017-09-17T11:53:24.650Z,7.43
2017-09-17T11:55:53.117Z,6.12
2017-09-17T11:58:21.595Z,5.30
2017-09-17T12:00:49.433Z,8.05
2017-09-17T12:03:17.300Z,5.07
2017-09-17T12:05:45.167Z,7.78
2017-09-17T12:08:12.898Z,8.43
2017-09-17T12:10:40.625Z,7.45
2017-09-17T12:13:08.351Z,10.68
2017-09-17T12:15:36.058Z,5.43
2017-09-17T12:18:04.709Z,7.03
2017-09-17T12:20:32.577Z,4.95
2017-09-17T12:23:00.445Z,3.75
2017-09-17T12:25:28.159Z,7.05
2017-09-17T12:27:55.861Z,4.10
2017-09-17T12:30:23.746Z,4.75
2017-09-17T12:32:51.609Z,6.60
2017-09-17T12:35:19.473Z,4.28
2017-09-17T12:37:47.340Z,5.03
2017-09-17T12:40:15.207Z,5.62
2017-09-17T12:42:43.074Z,5.65
2017-09-17T12:45:10.941Z,5.95
2017-09-17T12:47:38.808Z,5.05
2017-09-17T12:50:06.676Z,4.45
2017-09-17T12:52:34.544Z,4.30
2017-09-17T12:55:02.253Z,4.60
2017-09-17T12:57:30.721Z,4.72
2017-09-17T12:59:59.307Z,4.95
2017-09-17T13:02:27.795Z,6.12
2017-09-17T13:04:56.371Z,4.25
2017-09-17T13:07:25.042Z,4.90
2017-09-17T13:09:52.750Z,3.95
2017-09-17T13:12:20.458Z,3.45
2017-09-17T13:14:48.181Z,3.00
2017-09-17T13:17:15.885Z,2.95
2017-09-17T13:19:43.610Z,7.35
2017-09-17T13:22:11.512Z,3.40
2017-09-17T13:24:39.380Z,2.58
2017-09-17T13:27:07.246Z,4.55
2017-09-17T13:29:35.113Z,6.62
2017-09-17T13:32:02.981Z,3.28
2017-09-17T13:34:30.848Z,6.95
2017-09-17T13:36:58.715Z,3.22
2017-09-17T13:39:26.481Z,3.40
2017-09-17T13:41:54.239Z,3.85
2017-09-17T13:44:22.319Z,2.60
2017-09-17T13:46:50.107Z,2.25
2017-09-17T13:49:17.871Z,2.20
2017-09-17T13:51:45.606Z,2.78
2017-09-17T13:54:13.369Z,3.83
2017-09-17T13:56:41.142Z,3.80
2017-09-17T13:59:10.466Z,2.58
2017-09-17T14:01:48.243Z,3.03
2017-09-17T14:04:16.111Z,2.08
2017-09-17T14:06:43.978Z,4.57
2017-09-17T14:09:22.448Z,2.90
2017-09-17T14:11:50.210Z,2.90
2017-09-17T14:14:17.975Z,4.32
2017-09-17T14:16:45.746Z,8.18
2017-09-17T14:19:13.509Z,2.33
2017-09-17T14:21:41.261Z,3.05
2017-09-17T14:24:09.752Z,2.85
2017-09-17T14:26:37.467Z,5.93
2017-09-17T14:29:05.186Z,5.03
2017-09-17T14:31:32.908Z,3.00
2017-09-17T14:34:00.623Z,2.95
2017-09-17T14:36:28.353Z,3.62
2017-09-17T14:38:56.842Z,3.70
2017-09-17T14:41:25.322Z,8.05
2017-09-17T14:43:53.812Z,4.32
2017-09-17T14:46:22.297Z,2.12
2017-09-17T14:48:50.022Z,2.47
2017-09-17T14:51:17.742Z,2.25
2017-09-17T14:53:45.458Z,2.00
2017-09-17T14:56:13.179Z,3.85
2017-09-17T14:58:40.890Z,8.10
2017-09-17T15:01:08.617Z,2.25
2017-09-17T15:03:36.331Z,2.22
2017-09-17T15:06:04.825Z,3.00
2017-09-17T15:08:32.661Z,2.72
2017-09-17T15:11:00.389Z,4.00
2017-09-17T15:13:28.098Z,2.78
2017-09-17T15:15:59.939Z,6.45
2017-09-17T15:18:34.254Z,4.37
2017-09-17T15:21:07.958Z,2.42
2017-09-17T15:23:42.114Z,6.00
2017-09-17T15:26:16.028Z,5.00
2017-09-17T15:28:48.532Z,3.17
2017-09-17T15:31:22.771Z,2.33
2017-09-17T15:33:57.987Z,2.75
2017-09-17T15:36:31.342Z,2.22
2017-09-17T15:39:05.973Z,3.45
2017-09-17T15:41:38.781Z,2.08
2017-09-17T15:44:11.161Z,1.40
2017-09-17T15:46:43.748Z,2.60
2017-09-17T15:49:19.487Z,8.50
2017-09-17T15:51:52.941Z,2.30
2017-09-17T15:54:27.238Z,2.03
2017-09-17T15:57:00.826Z,1.67
2017-09-17T15:59:33.567Z,1.50
2017-09-17T16:02:05.603Z,1.35
2017-09-17T16:04:37.142Z,1.40
2017-09-17T16:07:08.596Z,2.10
2017-09-17T16:09:39.412Z,1.12
2017-09-17T16:12:13.079Z,1.48
2017-09-17T16:14:46.553Z,1.70
2017-09-17T16:17:18.824Z,2.20
2017-09-17T16:19:50.291Z,5.22
2017-09-17T16:22:22.882Z,1.20
2017-09-17T16:24:56.137Z,3.78
2017-09-17T16:27:27.792Z,2.92
2017-09-17T16:29:58.879Z,1.48
2017-09-17T16:32:29.893Z,7.60
2017-09-17T16:35:00.823Z,6.15
2017-09-17T16:37:31.182Z,10.10
2017-09-17T16:40:01.618Z,8.25
2017-09-17T16:42:31.730Z,4.55
2017-09-17T16:45:06.643Z,3.53
2017-09-17T16:47:41.377Z,1.75
2017-09-17T16:50:16.633Z,6.97
2017-09-17T16:52:50.679Z,2.58
2017-09-17T16:55:25.230Z,2.05
2017-09-17T16:57:59.099Z,2.83
2017-09-17T17:00:33.023Z,1.83
2017-09-17T17:03:06.543Z,3.15
2017-09-17T17:05:40.073Z,5.20
2017-09-17T17:08:14.401Z,3.25
2017-09-17T17:10:47.033Z,5.80
2017-09-17T17:13:18.419Z,2.15
2017-09-17T17:15:48.595Z,2.10
2017-09-17T17:18:19.324Z,1.95
2017-09-17T17:20:50.218Z,2.15
2017-09-17T17:23:20.783Z,4.75
2017-09-17T17:25:51.536Z,7.57
2017-09-17T17:28:22.437Z,3.20
2017-09-17T17:30:53.365Z,4.00
2017-09-17T17:33:24.525Z,2.47
2017-09-17T17:35:56.624Z,7.12
2017-09-17T17:38:28.143Z,3.35
2017-09-17T17:40:59.696Z,2.60
2017-09-17T17:43:30.910Z,3.40
2017-09-17T17:46:01.660Z,3.65
2017-09-17T17:48:33.162Z,3.20
2017-09-17T17:51:04.117Z,3.37
2017-09-17T17:53:31.967Z,9.00
2017-09-17T17:55:59.835Z,6.50
2017-09-17T17:58:27.701Z,8.55
2017-09-17T18:00:55.569Z,4.68
2017-09-17T18:03:23.436Z,3.53
2017-09-17T18:05:51.303Z,3.25
2017-09-17T18:08:19.171Z,2.20
2017-09-17T18:10:47.038Z,2.25
2017-09-17T18:13:14.906Z,2.15
2017-09-17T18:15:42.773Z,3.03
2017-09-17T18:18:10.641Z,3.40
2017-09-17T18:20:38.508Z,3.28
2017-09-17T18:23:06.374Z,4.07
2017-09-17T18:25:34.243Z,2.17
2017-09-17T18:28:02.109Z,3.97
2017-09-17T18:30:29.977Z,2.90
2017-09-17T18:32:57.844Z,3.12
2017-09-17T18:35:25.712Z,2.35
2017-09-17T18:37:53.578Z,2.15
2017-09-17T18:40:21.445Z,2.22
2017-09-17T18:42:49.313Z,4.72
2017-09-17T18:45:17.180Z,4.05
2017-09-17T18:47:45.051Z,5.50
2017-09-17T18:50:12.924Z,3.85
2017-09-17T18:52:40.782Z,3.80
2017-09-17T18:55:08.650Z,5.57
2017-09-17T18:57:36.516Z,3.12
2017-09-17T19:00:04.385Z,3.85
2017-09-17T19:02:32.253Z,5.93
2017-09-17T19:05:00.119Z,4.43
2017-09-17T19:07:27.986Z,3.97
2017-09-17T19:09:55.853Z,2.75
2017-09-17T19:12:23.721Z,2.95
2017-09-17T19:14:51.589Z,3.25
2017-09-17T19:17:19.456Z,6.40
2017-09-17T19:19:47.323Z,4.75
2017-09-17T19:22:15.191Z,2.20
2017-09-17T19:24:43.057Z,4.90
2017-09-17T19:27:10.925Z,7.70
2017-09-17T19:29:38.792Z,2.92
2017-09-17T19:32:06.660Z,4.85
2017-09-17T19:34:34.526Z,2.80
2017-09-17T19:37:02.394Z,3.37
2017-09-17T19:39:30.260Z,2.78
2017-09-17T19:41:58.230Z,2.67
2017-09-17T19:44:26.103Z,2.37
2017-09-17T19:46:53.966Z,3.95
2017-09-17T19:49:21.833Z,2.70
2017-09-17T19:51:49.631Z,2.70
2017-09-17T19:54:18.182Z,3.85
2017-09-17T19:56:46.049Z,6.68
2017-09-17T19:59:13.916Z,4.00
2017-09-17T20:01:41.785Z,2.42
2017-09-17T20:04:09.658Z,3.00
2017-09-17T20:06:37.517Z,6.85
2017-09-17T20:09:05.388Z,10.63
2017-09-17T20:11:33.253Z,6.78
2017-09-17T20:14:01.120Z,5.43
2017-09-17T20:16:28.988Z,19.98
2017-09-17T20:18:56.854Z,10.48
2017-09-17T20:21:24.721Z,9.85
2017-09-17T20:23:52.589Z,7.10
2017-09-17T20:26:20.462Z,4.80
2017-09-17T20:28:48.324Z,4.40
2017-09-17T20:31:16.132Z,9.57
2017-09-17T20:33:43.956Z,2.95
2017-09-17T20:36:11.832Z,4.93
2017-09-17T20:38:39.699Z,2.05
2017-09-17T20:41:07.559Z,3.05
2017-09-17T20:43:35.430Z,2.45
2017-09-17T20:46:03.296Z,2.53
2017-09-17T20:48:31.163Z,3.45
2017-09-17T20:50:59.029Z,2.75
2017-09-17T20:53:26.895Z,2.85
2017-09-17T20:55:54.762Z,3.22
2017-09-17T20:58:22.629Z,5.05
2017-09-17T21:00:50.496Z,5.60
2017-09-17T21:03:18.363Z,3.05
2017-09-17T21:05:46.230Z,8.48
2017-09-17T21:08:14.099Z,5.03
2017-09-17T21:10:41.966Z,2.10
2017-09-17T21:13:09.834Z,2.25
2017-09-17T21:15:37.700Z,3.22
2017-09-17T21:18:05.567Z,2.45
2017-09-17T21:20:33.435Z,4.40
2017-09-17T21:23:01.302Z,9.05
2017-09-17T21:25:29.169Z,2.90
2017-09-17T21:27:57.036Z,7.20
2017-09-17T21:30:24.904Z,5.93
2017-09-17T21:32:52.772Z,3.03
2017-09-17T21:35:20.638Z,3.15
2017-09-17T21:37:48.506Z,2.80
2017-09-17T21:40:16.373Z,3.70
2017-09-17T21:42:44.241Z,2.45
2017-09-17T21:45:12.114Z,3.15
2017-09-17T21:47:39.975Z,6.05
2017-09-17T21:50:07.842Z,4.22
2017-09-17T21:52:35.710Z,3.05
2017-09-17T21:55:03.577Z,2.97
2017-09-17T21:57:31.444Z,2.80
2017-09-17T21:59:59.317Z,4.07
2017-09-17T22:02:27.198Z,2.85
2017-09-17T22:04:55.763Z,3.55
2017-09-17T22:07:23.630Z,5.20
2017-09-17T22:09:51.497Z,3.03
2017-09-17T22:12:19.364Z,3.35
2017-09-17T22:14:47.232Z,3.65
2017-09-17T22:17:15.099Z,8.40
2017-09-17T22:19:42.966Z,3.67
2017-09-17T22:22:10.834Z,3.30
2017-09-17T22:24:38.701Z,4.97
2017-09-17T22:27:06.569Z,4.62
2017-09-17T22:29:34.435Z,3.22
2017-09-17T22:32:02.302Z,8.38
2017-09-17T22:34:30.169Z,3.25
2017-09-17T22:36:58.039Z,2.75
2017-09-17T22:39:25.905Z,2.42
2017-09-17T22:41:53.773Z,3.78
2017-09-17T22:44:21.640Z,2.78
2017-09-17T22:46:49.507Z,3.03
2017-09-17T22:49:18.091Z,3.90
2017-09-17T22:51:45.958Z,3.33
2017-09-17T22:54:13.826Z,2.80
2017-09-17T22:56:41.693Z,3.08
2017-09-17T22:59:09.561Z,3.30
2017-09-17T23:01:37.427Z,3.17
2017-09-17T23:04:05.295Z,2.90
2017-09-17T23:06:33.162Z,5.50
2017-09-17T23:09:01.029Z,2.35
2017-09-17T23:11:28.896Z,3.72
2017-09-17T23:13:56.764Z,4.47
2017-09-17T23:16:24.632Z,3.97
2017-09-17T23:18:52.502Z,6.32
2017-09-17T23:21:20.367Z,4.00
2017-09-17T23:23:48.234Z,4.40
2017-09-17T23:26:16.101Z,3.40
2017-09-17T23:28:43.968Z,3.58
2017-09-17T23:31:11.835Z,7.87
2017-09-17T23:33:39.702Z,3.50
2017-09-17T23:36:07.672Z,3.92
2017-09-17T23:38:35.465Z,9.88
2017-09-17T23:41:03.307Z,5.28
2017-09-17T23:43:31.172Z,5.55
2017-09-17T23:45:59.044Z,5.10
2017-09-17T23:48:26.911Z,8.18
2017-09-17T23:50:54.778Z,3.87
2017-09-17T23:53:28.377Z,5.85
2017-09-17T23:55:56.346Z,3.85
2017-09-17T23:58:24.217Z,7.62
